Etusivu
METAR-TAF:

METAR-TAF

Lentoasemat :

Halmstad, Ruotsi

Leveyspiiri: 56-41N, Pituuspiiri: 012-50E, korkeus merenpinnasta: 30 m

Tämänhetkinen sää

Tämä raportti tehtiin 21 minuuttia sitten, kello 13.20 UTC
Tuuli 10 kn idästä
Lämpötila 2°C
Kosteus 93%
Ilmanpaine 1010 hPa
Näkyvyys: 6000 m
Muutamia pilviä 900 ft:n korkeudessa
Hajonneita pilviä 1200 ft:n korkeudessa
heikkoa lumisadetta, sadetta

METAR: ESMT 111320Z 09010KT 6000 -SNRA FEW009 BKN012 02/01 Q1010

Aika: 15:41 (13:41 UTC)


TAF: puuttuu

Säähavainnot ja -ennusteet yli 4000 lentoasemalta (METAR- ja TAF-raportit).

Käytössä olevat sääasemat on merkitty karttaan keltaisilla ja punaisilla pisteillä.

Aseta hiiri pisteen päälle nähdäksesi sääaseman nimen.

Klikkaa sitten nähdäksesi säähavainnot ja -ennusteet.

Kartan vaihtaminen: klikkaa mustalla rastilla varustettuja vihreitä pisteitä, niin voit zoomata sisään; viivalla varustettua vihreää pistettä, niin voit zoomata ulos tai vihreitä nuolia, niin pääset viereisille kartoille.


METAR-TAF: